sensor_id;sensor_type;location;lat;lon;timestamp;P1;durP1;ratioP1;P2;durP2;ratioP2
46447;SDS011;32145;50.390;30.778;2024-02-15T00:02:22;6.70;;;4.05;;
46447;SDS011;32145;50.390;30.778;2024-02-15T00:05:16;10.52;;;4.38;;
46447;SDS011;32145;50.390;30.778;2024-02-15T00:08:11;9.27;;;4.10;;
46447;SDS011;32145;50.390;30.778;2024-02-15T00:11:05;14.55;;;4.45;;
46447;SDS011;32145;50.390;30.778;2024-02-15T00:14:01;11.18;;;4.50;;
46447;SDS011;32145;50.390;30.778;2024-02-15T00:16:55;9.20;;;4.72;;
46447;SDS011;32145;50.390;30.778;2024-02-15T00:19:50;14.10;;;3.58;;
46447;SDS011;32145;50.390;30.778;2024-02-15T00:22:44;10.98;;;4.22;;
46447;SDS011;32145;50.390;30.778;2024-02-15T00:25:40;9.60;;;4.72;;
46447;SDS011;32145;50.390;30.778;2024-02-15T00:28:37;8.48;;;4.57;;
46447;SDS011;32145;50.390;30.778;2024-02-15T00:31:32;9.73;;;5.40;;
46447;SDS011;32145;50.390;30.778;2024-02-15T00:34:27;11.38;;;5.68;;
46447;SDS011;32145;50.390;30.778;2024-02-15T00:37:21;13.63;;;5.13;;
46447;SDS011;32145;50.390;30.778;2024-02-15T00:40:15;9.98;;;5.07;;
46447;SDS011;32145;50.390;30.778;2024-02-15T00:43:10;12.38;;;5.10;;
46447;SDS011;32145;50.390;30.778;2024-02-15T00:46:04;8.45;;;4.55;;
46447;SDS011;32145;50.390;30.778;2024-02-15T00:49:01;29.08;;;5.72;;
46447;SDS011;32145;50.390;30.778;2024-02-15T00:51:58;8.63;;;4.72;;
46447;SDS011;32145;50.390;30.778;2024-02-15T00:54:54;9.43;;;5.03;;
46447;SDS011;32145;50.390;30.778;2024-02-15T00:57:51;7.47;;;4.38;;
46447;SDS011;32145;50.390;30.778;2024-02-15T01:00:47;9.15;;;5.25;;
46447;SDS011;32145;50.390;30.778;2024-02-15T01:03:41;10.50;;;4.60;;
46447;SDS011;32145;50.390;30.778;2024-02-15T01:06:37;10.52;;;5.00;;
46447;SDS011;32145;50.390;30.778;2024-02-15T01:09:31;16.05;;;4.97;;
46447;SDS011;32145;50.390;30.778;2024-02-15T01:12:26;9.00;;;5.43;;
46447;SDS011;32145;50.390;30.778;2024-02-15T01:15:20;10.90;;;4.40;;
46447;SDS011;32145;50.390;30.778;2024-02-15T01:18:15;10.25;;;5.05;;
46447;SDS011;32145;50.390;30.778;2024-02-15T01:21:11;9.05;;;5.15;;
46447;SDS011;32145;50.390;30.778;2024-02-15T01:24:09;8.35;;;4.43;;
46447;SDS011;32145;50.390;30.778;2024-02-15T01:27:03;9.05;;;5.18;;
46447;SDS011;32145;50.390;30.778;2024-02-15T01:29:58;9.50;;;4.65;;
46447;SDS011;32145;50.390;30.778;2024-02-15T01:32:52;8.88;;;5.00;;
46447;SDS011;32145;50.390;30.778;2024-02-15T01:35:46;9.60;;;4.70;;
46447;SDS011;32145;50.390;30.778;2024-02-15T01:38:41;8.27;;;4.65;;
46447;SDS011;32145;50.390;30.778;2024-02-15T01:41:36;11.35;;;4.47;;
46447;SDS011;32145;50.390;30.778;2024-02-15T01:44:32;11.63;;;5.03;;
46447;SDS011;32145;50.390;30.778;2024-02-15T01:47:29;8.63;;;4.80;;
46447;SDS011;32145;50.390;30.778;2024-02-15T01:50:26;7.55;;;4.20;;
46447;SDS011;32145;50.390;30.778;2024-02-15T01:53:22;8.25;;;5.20;;
46447;SDS011;32145;50.390;30.778;2024-02-15T01:56:19;8.45;;;4.95;;
46447;SDS011;32145;50.390;30.778;2024-02-15T01:59:17;6.43;;;4.05;;
46447;SDS011;32145;50.390;30.778;2024-02-15T02:02:14;7.95;;;4.70;;
46447;SDS011;32145;50.390;30.778;2024-02-15T02:05:14;12.23;;;4.47;;
46447;SDS011;32145;50.390;30.778;2024-02-15T02:08:10;14.10;;;4.57;;
46447;SDS011;32145;50.390;30.778;2024-02-15T02:11:07;7.03;;;4.18;;
46447;SDS011;32145;50.390;30.778;2024-02-15T02:14:01;9.32;;;4.47;;
46447;SDS011;32145;50.390;30.778;2024-02-15T02:16:57;8.13;;;4.38;;
46447;SDS011;32145;50.390;30.778;2024-02-15T02:20:07;7.47;;;3.78;;
46447;SDS011;32145;50.390;30.778;2024-02-15T02:23:04;7.55;;;4.60;;
46447;SDS011;32145;50.390;30.778;2024-02-15T02:26:06;7.15;;;4.65;;
46447;SDS011;32145;50.390;30.778;2024-02-15T02:29:03;6.20;;;4.07;;
46447;SDS011;32145;50.390;30.778;2024-02-15T02:32:00;6.75;;;4.30;;
46447;SDS011;32145;50.390;30.778;2024-02-15T02:34:56;7.10;;;4.53;;
46447;SDS011;32145;50.390;30.778;2024-02-15T02:37:52;12.50;;;5.03;;
46447;SDS011;32145;50.390;30.778;2024-02-15T02:40:49;7.20;;;4.40;;
46447;SDS011;32145;50.390;30.778;2024-02-15T02:43:46;7.05;;;4.28;;
46447;SDS011;32145;50.390;30.778;2024-02-15T02:46:43;6.60;;;4.38;;
46447;SDS011;32145;50.390;30.778;2024-02-15T02:49:39;6.35;;;4.25;;
46447;SDS011;32145;50.390;30.778;2024-02-15T02:52:35;7.70;;;4.68;;
46447;SDS011;32145;50.390;30.778;2024-02-15T02:55:32;7.00;;;4.28;;
46447;SDS011;32145;50.390;30.778;2024-02-15T02:58:28;7.97;;;4.28;;
46447;SDS011;32145;50.390;30.778;2024-02-15T03:01:25;7.07;;;4.13;;
46447;SDS011;32145;50.390;30.778;2024-02-15T03:04:22;9.00;;;4.72;;
46447;SDS011;32145;50.390;30.778;2024-02-15T03:07:18;9.50;;;5.30;;
46447;SDS011;32145;50.390;30.778;2024-02-15T03:10:12;7.35;;;4.47;;
46447;SDS011;32145;50.390;30.778;2024-02-15T03:13:07;7.15;;;4.07;;
46447;SDS011;32145;50.390;30.778;2024-02-15T03:16:01;6.85;;;4.25;;
46447;SDS011;32145;50.390;30.778;2024-02-15T03:18:57;8.10;;;4.40;;
46447;SDS011;32145;50.390;30.778;2024-02-15T03:21:53;6.78;;;4.30;;
46447;SDS011;32145;50.390;30.778;2024-02-15T03:24:49;6.18;;;4.20;;
46447;SDS011;32145;50.390;30.778;2024-02-15T03:27:45;7.57;;;3.78;;
46447;SDS011;32145;50.390;30.778;2024-02-15T03:30:42;12.00;;;4.60;;
46447;SDS011;32145;50.390;30.778;2024-02-15T03:33:38;7.65;;;4.30;;
46447;SDS011;32145;50.390;30.778;2024-02-15T03:36:34;8.93;;;4.60;;
46447;SDS011;32145;50.390;30.778;2024-02-15T03:39:28;7.47;;;4.63;;
46447;SDS011;32145;50.390;30.778;2024-02-15T03:42:22;6.25;;;4.63;;
46447;SDS011;32145;50.390;30.778;2024-02-15T03:45:16;8.57;;;5.03;;
46447;SDS011;32145;50.390;30.778;2024-02-15T03:48:14;6.22;;;4.22;;
46447;SDS011;32145;50.390;30.778;2024-02-15T03:51:11;7.60;;;4.30;;
46447;SDS011;32145;50.390;30.778;2024-02-15T03:54:07;8.75;;;4.60;;
46447;SDS011;32145;50.390;30.778;2024-02-15T03:56:55;7.13;;;4.50;;
46447;SDS011;32145;50.390;30.778;2024-02-15T03:59:52;11.30;;;4.53;;
46447;SDS011;32145;50.390;30.778;2024-02-15T04:02:42;22.15;;;5.57;;
46447;SDS011;32145;50.390;30.778;2024-02-15T04:05:37;7.32;;;4.88;;
46447;SDS011;32145;50.390;30.778;2024-02-15T04:08:33;6.97;;;4.97;;
46447;SDS011;32145;50.390;30.778;2024-02-15T04:11:31;7.25;;;4.25;;
46447;SDS011;32145;50.390;30.778;2024-02-15T04:14:27;6.90;;;4.35;;
46447;SDS011;32145;50.390;30.778;2024-02-15T04:17:22;7.22;;;4.88;;
46447;SDS011;32145;50.390;30.778;2024-02-15T04:20:16;8.50;;;4.65;;
46447;SDS011;32145;50.390;30.778;2024-02-15T04:23:07;10.75;;;4.90;;
46447;SDS011;32145;50.390;30.778;2024-02-15T04:25:55;10.63;;;4.83;;
46447;SDS011;32145;50.390;30.778;2024-02-15T04:28:47;9.35;;;5.28;;
46447;SDS011;32145;50.390;30.778;2024-02-15T04:31:35;10.90;;;4.90;;
46447;SDS011;32145;50.390;30.778;2024-02-15T04:34:25;9.65;;;5.38;;
46447;SDS011;32145;50.390;30.778;2024-02-15T04:37:14;7.50;;;5.15;;
46447;SDS011;32145;50.390;30.778;2024-02-15T04:40:10;8.63;;;5.28;;
46447;SDS011;32145;50.390;30.778;2024-02-15T04:43:08;7.87;;;4.93;;
46447;SDS011;32145;50.390;30.778;2024-02-15T04:46:04;9.15;;;4.88;;
46447;SDS011;32145;50.390;30.778;2024-02-15T04:48:53;6.95;;;4.68;;
46447;SDS011;32145;50.390;30.778;2024-02-15T04:51:44;8.25;;;5.05;;
46447;SDS011;32145;50.390;30.778;2024-02-15T04:54:32;25.17;;;5.13;;
46447;SDS011;32145;50.390;30.778;2024-02-15T04:57:28;6.93;;;4.57;;
46447;SDS011;32145;50.390;30.778;2024-02-15T05:00:25;8.05;;;4.88;;
46447;SDS011;32145;50.390;30.778;2024-02-15T05:03:22;7.47;;;4.65;;
46447;SDS011;32145;50.390;30.778;2024-02-15T05:06:13;9.13;;;4.90;;
46447;SDS011;32145;50.390;30.778;2024-02-15T05:09:01;7.63;;;4.93;;
46447;SDS011;32145;50.390;30.778;2024-02-15T05:11:51;7.20;;;4.70;;
46447;SDS011;32145;50.390;30.778;2024-02-15T05:14:47;7.60;;;4.85;;
46447;SDS011;32145;50.390;30.778;2024-02-15T05:17:44;8.20;;;4.70;;
46447;SDS011;32145;50.390;30.778;2024-02-15T05:20:35;13.13;;;5.72;;
46447;SDS011;32145;50.390;30.778;2024-02-15T05:23:23;10.25;;;5.88;;
46447;SDS011;32145;50.390;30.778;2024-02-15T05:26:20;9.38;;;5.65;;
46447;SDS011;32145;50.390;30.778;2024-02-15T05:29:14;6.65;;;4.97;;
46447;SDS011;32145;50.390;30.778;2024-02-15T05:32:09;14.57;;;5.80;;
46447;SDS011;32145;50.390;30.778;2024-02-15T05:35:03;8.20;;;5.10;;
46447;SDS011;32145;50.390;30.778;2024-02-15T05:38:00;6.70;;;5.00;;
46447;SDS011;32145;50.390;30.778;2024-02-15T05:40:54;10.88;;;5.45;;
46447;SDS011;32145;50.390;30.778;2024-02-15T05:43:48;8.95;;;5.50;;
46447;SDS011;32145;50.390;30.778;2024-02-15T05:46:43;7.93;;;5.13;;
46447;SDS011;32145;50.390;30.778;2024-02-15T05:49:37;8.02;;;4.95;;
46447;SDS011;32145;50.390;30.778;2024-02-15T05:52:33;8.30;;;5.10;;
46447;SDS011;32145;50.390;30.778;2024-02-15T05:55:31;10.05;;;6.10;;
46447;SDS011;32145;50.390;30.778;2024-02-15T05:58:27;11.85;;;5.15;;
46447;SDS011;32145;50.390;30.778;2024-02-15T06:01:24;8.77;;;5.57;;
46447;SDS011;32145;50.390;30.778;2024-02-15T06:04:20;8.45;;;5.60;;
46447;SDS011;32145;50.390;30.778;2024-02-15T06:07:17;8.90;;;5.20;;
46447;SDS011;32145;50.390;30.778;2024-02-15T06:10:13;7.97;;;5.65;;
46447;SDS011;32145;50.390;30.778;2024-02-15T06:13:11;9.18;;;6.05;;
46447;SDS011;32145;50.390;30.778;2024-02-15T06:16:05;9.00;;;6.05;;
46447;SDS011;32145;50.390;30.778;2024-02-15T06:19:00;7.90;;;5.53;;
46447;SDS011;32145;50.390;30.778;2024-02-15T06:21:54;23.27;;;6.40;;
46447;SDS011;32145;50.390;30.778;2024-02-15T06:24:49;7.25;;;5.07;;
46447;SDS011;32145;50.390;30.778;2024-02-15T06:27:43;9.02;;;6.13;;
46447;SDS011;32145;50.390;30.778;2024-02-15T06:30:38;9.77;;;6.88;;
46447;SDS011;32145;50.390;30.778;2024-02-15T06:33:33;9.20;;;5.35;;
46447;SDS011;32145;50.390;30.778;2024-02-15T06:36:27;9.02;;;5.63;;
46447;SDS011;32145;50.390;30.778;2024-02-15T06:39:21;8.18;;;5.70;;
46447;SDS011;32145;50.390;30.778;2024-02-15T06:42:16;9.30;;;6.03;;
46447;SDS011;32145;50.390;30.778;2024-02-15T06:45:11;12.40;;;6.80;;
46447;SDS011;32145;50.390;30.778;2024-02-15T06:48:07;17.33;;;7.40;;
46447;SDS011;32145;50.390;30.778;2024-02-15T06:51:01;10.90;;;6.03;;
46447;SDS011;32145;50.390;30.778;2024-02-15T06:53:55;10.90;;;5.45;;
46447;SDS011;32145;50.390;30.778;2024-02-15T06:56:50;13.25;;;7.78;;
46447;SDS011;32145;50.390;30.778;2024-02-15T06:59:46;10.43;;;7.38;;
46447;SDS011;32145;50.390;30.778;2024-02-15T07:02:40;9.20;;;6.03;;
46447;SDS011;32145;50.390;30.778;2024-02-15T07:05:36;11.82;;;7.22;;
46447;SDS011;32145;50.390;30.778;2024-02-15T07:08:31;10.30;;;6.30;;
46447;SDS011;32145;50.390;30.778;2024-02-15T07:11:25;9.05;;;5.28;;
46447;SDS011;32145;50.390;30.778;2024-02-15T07:14:19;9.55;;;5.78;;
46447;SDS011;32145;50.390;30.778;2024-02-15T07:17:13;10.52;;;6.65;;
46447;SDS011;32145;50.390;30.778;2024-02-15T07:20:09;10.45;;;6.40;;
46447;SDS011;32145;50.390;30.778;2024-02-15T07:23:08;9.38;;;6.22;;
46447;SDS011;32145;50.390;30.778;2024-02-15T07:26:04;12.43;;;6.63;;
46447;SDS011;32145;50.390;30.778;2024-02-15T07:29:01;11.32;;;6.38;;
46447;SDS011;32145;50.390;30.778;2024-02-15T07:31:57;9.73;;;6.03;;
46447;SDS011;32145;50.390;30.778;2024-02-15T07:34:53;10.18;;;6.65;;
46447;SDS011;32145;50.390;30.778;2024-02-15T07:37:53;10.48;;;6.35;;
46447;SDS011;32145;50.390;30.778;2024-02-15T07:40:51;11.05;;;6.95;;
46447;SDS011;32145;50.390;30.778;2024-02-15T07:43:48;11.93;;;7.47;;
46447;SDS011;32145;50.390;30.778;2024-02-15T07:46:45;13.10;;;7.25;;
46447;SDS011;32145;50.390;30.778;2024-02-15T07:49:42;11.93;;;6.70;;
46447;SDS011;32145;50.390;30.778;2024-02-15T07:52:38;14.90;;;7.80;;
46447;SDS011;32145;50.390;30.778;2024-02-15T07:55:34;11.25;;;7.55;;
46447;SDS011;32145;50.390;30.778;2024-02-15T07:58:32;11.90;;;7.60;;
46447;SDS011;32145;50.390;30.778;2024-02-15T08:01:26;11.70;;;7.45;;
46447;SDS011;32145;50.390;30.778;2024-02-15T08:04:20;12.25;;;7.35;;
46447;SDS011;32145;50.390;30.778;2024-02-15T08:07:15;11.27;;;7.32;;
46447;SDS011;32145;50.390;30.778;2024-02-15T08:10:09;14.15;;;7.93;;
46447;SDS011;32145;50.390;30.778;2024-02-15T08:13:04;9.90;;;6.40;;
46447;SDS011;32145;50.390;30.778;2024-02-15T08:15:59;11.10;;;7.18;;
46447;SDS011;32145;50.390;30.778;2024-02-15T08:18:55;11.52;;;7.28;;
46447;SDS011;32145;50.390;30.778;2024-02-15T08:21:52;11.43;;;7.20;;
46447;SDS011;32145;50.390;30.778;2024-02-15T08:24:48;10.73;;;7.30;;
46447;SDS011;32145;50.390;30.778;2024-02-15T08:27:47;10.10;;;7.18;;
46447;SDS011;32145;50.390;30.778;2024-02-15T08:30:44;11.35;;;7.38;;
46447;SDS011;32145;50.390;30.778;2024-02-15T08:33:41;10.75;;;7.22;;
46447;SDS011;32145;50.390;30.778;2024-02-15T08:36:36;9.82;;;7.13;;
46447;SDS011;32145;50.390;30.778;2024-02-15T08:39:30;11.70;;;7.43;;
46447;SDS011;32145;50.390;30.778;2024-02-15T08:42:24;11.40;;;7.85;;
46447;SDS011;32145;50.390;30.778;2024-02-15T08:45:19;10.68;;;7.50;;
46447;SDS011;32145;50.390;30.778;2024-02-15T08:48:15;10.63;;;7.07;;
46447;SDS011;32145;50.390;30.778;2024-02-15T08:51:13;10.93;;;6.80;;
46447;SDS011;32145;50.390;30.778;2024-02-15T08:54:09;12.00;;;7.65;;
46447;SDS011;32145;50.390;30.778;2024-02-15T08:57:06;12.63;;;8.23;;
46447;SDS011;32145;50.390;30.778;2024-02-15T09:00:03;13.88;;;8.35;;
46447;SDS011;32145;50.390;30.778;2024-02-15T09:03:00;12.35;;;8.70;;
46447;SDS011;32145;50.390;30.778;2024-02-15T09:05:55;14.10;;;8.98;;
46447;SDS011;32145;50.390;30.778;2024-02-15T09:08:51;14.20;;;8.98;;
46447;SDS011;32145;50.390;30.778;2024-02-15T09:11:45;14.05;;;9.00;;
46447;SDS011;32145;50.390;30.778;2024-02-15T09:14:39;13.65;;;8.40;;
46447;SDS011;32145;50.390;30.778;2024-02-15T09:17:36;21.30;;;10.30;;
46447;SDS011;32145;50.390;30.778;2024-02-15T09:20:32;14.98;;;9.88;;
46447;SDS011;32145;50.390;30.778;2024-02-15T09:23:29;14.98;;;9.27;;
46447;SDS011;32145;50.390;30.778;2024-02-15T09:26:26;16.08;;;10.15;;
46447;SDS011;32145;50.390;30.778;2024-02-15T09:29:23;18.52;;;11.30;;
46447;SDS011;32145;50.390;30.778;2024-02-15T09:32:19;15.35;;;9.75;;
46447;SDS011;32145;50.390;30.778;2024-02-15T09:35:15;18.23;;;10.80;;
46447;SDS011;32145;50.390;30.778;2024-02-15T09:38:12;17.40;;;10.65;;
46447;SDS011;32145;50.390;30.778;2024-02-15T09:41:08;18.10;;;11.20;;
46447;SDS011;32145;50.390;30.778;2024-02-15T09:44:04;16.75;;;10.80;;
46447;SDS011;32145;50.390;30.778;2024-02-15T09:47:02;18.30;;;10.60;;
46447;SDS011;32145;50.390;30.778;2024-02-15T09:49:58;17.23;;;10.30;;
46447;SDS011;32145;50.390;30.778;2024-02-15T09:52:53;16.95;;;10.90;;
46447;SDS011;32145;50.390;30.778;2024-02-15T09:55:47;16.63;;;10.35;;
46447;SDS011;32145;50.390;30.778;2024-02-15T09:58:42;18.70;;;10.27;;
46447;SDS011;32145;50.390;30.778;2024-02-15T10:01:38;16.63;;;11.25;;
46447;SDS011;32145;50.390;30.778;2024-02-15T10:04:34;17.27;;;11.43;;
46447;SDS011;32145;50.390;30.778;2024-02-15T10:07:28;17.83;;;10.68;;
46447;SDS011;32145;50.390;30.778;2024-02-15T10:10:25;17.13;;;10.63;;
46447;SDS011;32145;50.390;30.778;2024-02-15T10:13:22;18.95;;;11.10;;
46447;SDS011;32145;50.390;30.778;2024-02-15T10:16:17;15.50;;;10.32;;
46447;SDS011;32145;50.390;30.778;2024-02-15T10:19:14;17.10;;;9.95;;
46447;SDS011;32145;50.390;30.778;2024-02-15T10:22:09;16.63;;;10.23;;
46447;SDS011;32145;50.390;30.778;2024-02-15T10:25:11;17.10;;;10.60;;
46447;SDS011;32145;50.390;30.778;2024-02-15T10:28:06;16.88;;;10.98;;
46447;SDS011;32145;50.390;30.778;2024-02-15T10:31:03;16.90;;;10.70;;
46447;SDS011;32145;50.390;30.778;2024-02-15T10:34:02;19.15;;;11.00;;
46447;SDS011;32145;50.390;30.778;2024-02-15T10:37:10;17.92;;;11.38;;
46447;SDS011;32145;50.390;30.778;2024-02-15T10:40:06;19.98;;;11.65;;
46447;SDS011;32145;50.390;30.778;2024-02-15T10:43:02;19.90;;;11.75;;
46447;SDS011;32145;50.390;30.778;2024-02-15T10:45:57;18.20;;;11.75;;
46447;SDS011;32145;50.390;30.778;2024-02-15T10:48:52;21.42;;;11.88;;
46447;SDS011;32145;50.390;30.778;2024-02-15T10:51:49;24.35;;;12.70;;
46447;SDS011;32145;50.390;30.778;2024-02-15T10:54:53;19.23;;;11.43;;
46447;SDS011;32145;50.390;30.778;2024-02-15T10:57:53;20.45;;;12.20;;
46447;SDS011;32145;50.390;30.778;2024-02-15T11:00:52;17.10;;;10.60;;
46447;SDS011;32145;50.390;30.778;2024-02-15T11:03:49;22.77;;;12.80;;
46447;SDS011;32145;50.390;30.778;2024-02-15T11:06:45;22.40;;;12.85;;
46447;SDS011;32145;50.390;30.778;2024-02-15T11:09:39;18.65;;;11.95;;
46447;SDS011;32145;50.390;30.778;2024-02-15T11:12:37;17.60;;;11.60;;
46447;SDS011;32145;50.390;30.778;2024-02-15T11:15:40;17.33;;;10.55;;
46447;SDS011;32145;50.390;30.778;2024-02-15T11:18:44;19.05;;;11.70;;
46447;SDS011;32145;50.390;30.778;2024-02-15T11:21:54;17.65;;;11.13;;
46447;SDS011;32145;50.390;30.778;2024-02-15T11:24:50;17.92;;;11.88;;
46447;SDS011;32145;50.390;30.778;2024-02-15T11:27:49;20.27;;;12.15;;
46447;SDS011;32145;50.390;30.778;2024-02-15T11:30:45;16.48;;;11.07;;
46447;SDS011;32145;50.390;30.778;2024-02-15T11:33:42;22.23;;;13.25;;
46447;SDS011;32145;50.390;30.778;2024-02-15T11:36:37;23.30;;;13.82;;
46447;SDS011;32145;50.390;30.778;2024-02-15T11:39:40;20.23;;;12.45;;
46447;SDS011;32145;50.390;30.778;2024-02-15T11:42:35;19.05;;;11.80;;
46447;SDS011;32145;50.390;30.778;2024-02-15T11:45:31;18.48;;;11.98;;
46447;SDS011;32145;50.390;30.778;2024-02-15T11:48:27;19.33;;;10.48;;
46447;SDS011;32145;50.390;30.778;2024-02-15T11:51:27;18.58;;;10.70;;
46447;SDS011;32145;50.390;30.778;2024-02-15T11:54:25;22.67;;;13.48;;
46447;SDS011;32145;50.390;30.778;2024-02-15T11:57:21;26.55;;;15.75;;
46447;SDS011;32145;50.390;30.778;2024-02-15T12:00:22;19.55;;;10.45;;
46447;SDS011;32145;50.390;30.778;2024-02-15T12:03:18;16.83;;;9.25;;
46447;SDS011;32145;50.390;30.778;2024-02-15T12:06:16;20.67;;;11.38;;
46447;SDS011;32145;50.390;30.778;2024-02-15T12:09:11;17.13;;;9.17;;
46447;SDS011;32145;50.390;30.778;2024-02-15T12:12:05;18.83;;;11.18;;
46447;SDS011;32145;50.390;30.778;2024-02-15T12:14:59;15.45;;;9.50;;
46447;SDS011;32145;50.390;30.778;2024-02-15T12:18:12;17.48;;;10.05;;
46447;SDS011;32145;50.390;30.778;2024-02-15T12:21:11;17.95;;;9.27;;
46447;SDS011;32145;50.390;30.778;2024-02-15T12:24:08;18.05;;;9.70;;
46447;SDS011;32145;50.390;30.778;2024-02-15T12:27:03;15.88;;;8.40;;
46447;SDS011;32145;50.390;30.778;2024-02-15T12:29:57;13.88;;;9.40;;
46447;SDS011;32145;50.390;30.778;2024-02-15T12:32:52;14.30;;;8.23;;
46447;SDS011;32145;50.390;30.778;2024-02-15T12:36:03;13.98;;;9.65;;
46447;SDS011;32145;50.390;30.778;2024-02-15T12:39:00;17.00;;;9.20;;
46447;SDS011;32145;50.390;30.778;2024-02-15T12:41:55;14.70;;;8.63;;
46447;SDS011;32145;50.390;30.778;2024-02-15T12:44:49;16.23;;;9.10;;
46447;SDS011;32145;50.390;30.778;2024-02-15T12:47:43;19.95;;;10.20;;
46447;SDS011;32145;50.390;30.778;2024-02-15T12:50:38;16.35;;;9.35;;
46447;SDS011;32145;50.390;30.778;2024-02-15T12:53:32;12.10;;;8.07;;
46447;SDS011;32145;50.390;30.778;2024-02-15T12:56:27;13.77;;;8.02;;
46447;SDS011;32145;50.390;30.778;2024-02-15T12:59:22;13.23;;;8.50;;
46447;SDS011;32145;50.390;30.778;2024-02-15T13:02:16;14.10;;;8.98;;
46447;SDS011;32145;50.390;30.778;2024-02-15T13:05:10;14.95;;;10.30;;
46447;SDS011;32145;50.390;30.778;2024-02-15T13:08:05;15.50;;;8.88;;
46447;SDS011;32145;50.390;30.778;2024-02-15T13:10:59;13.20;;;8.77;;
46447;SDS011;32145;50.390;30.778;2024-02-15T13:13:55;13.50;;;8.40;;
46447;SDS011;32145;50.390;30.778;2024-02-15T13:16:49;12.38;;;8.43;;
46447;SDS011;32145;50.390;30.778;2024-02-15T13:19:44;12.82;;;8.80;;
46447;SDS011;32145;50.390;30.778;2024-02-15T13:22:39;15.52;;;9.77;;
46447;SDS011;32145;50.390;30.778;2024-02-15T13:25:33;11.70;;;9.07;;
46447;SDS011;32145;50.390;30.778;2024-02-15T13:28:28;13.38;;;8.63;;
46447;SDS011;32145;50.390;30.778;2024-02-15T13:31:23;14.43;;;9.50;;
46447;SDS011;32145;50.390;30.778;2024-02-15T13:34:18;13.45;;;8.88;;
46447;SDS011;32145;50.390;30.778;2024-02-15T13:37:12;14.60;;;9.68;;
46447;SDS011;32145;50.390;30.778;2024-02-15T13:40:07;14.32;;;9.90;;
46447;SDS011;32145;50.390;30.778;2024-02-15T13:43:03;13.90;;;9.43;;
46447;SDS011;32145;50.390;30.778;2024-02-15T13:45:52;13.55;;;9.18;;
46447;SDS011;32145;50.390;30.778;2024-02-15T13:48:49;13.40;;;9.07;;
46447;SDS011;32145;50.390;30.778;2024-02-15T13:51:47;14.25;;;10.02;;
46447;SDS011;32145;50.390;30.778;2024-02-15T13:54:41;15.85;;;9.73;;
46447;SDS011;32145;50.390;30.778;2024-02-15T13:57:35;16.75;;;9.90;;
46447;SDS011;32145;50.390;30.778;2024-02-15T14:00:24;20.23;;;11.68;;
46447;SDS011;32145;50.390;30.778;2024-02-15T14:03:22;17.17;;;11.35;;
46447;SDS011;32145;50.390;30.778;2024-02-15T14:06:11;23.93;;;11.90;;
46447;SDS011;32145;50.390;30.778;2024-02-15T14:09:08;18.48;;;11.25;;
46447;SDS011;32145;50.390;30.778;2024-02-15T14:12:04;17.83;;;10.68;;
46447;SDS011;32145;50.390;30.778;2024-02-15T14:15:01;19.27;;;11.95;;
46447;SDS011;32145;50.390;30.778;2024-02-15T14:17:57;24.40;;;14.57;;
46447;SDS011;32145;50.390;30.778;2024-02-15T14:20:48;20.63;;;12.73;;
46447;SDS011;32145;50.390;30.778;2024-02-15T14:23:38;19.33;;;11.63;;
46447;SDS011;32145;50.390;30.778;2024-02-15T14:26:34;17.95;;;11.98;;
46447;SDS011;32145;50.390;30.778;2024-02-15T14:29:24;22.75;;;13.10;;
46447;SDS011;32145;50.390;30.778;2024-02-15T14:32:13;22.67;;;13.40;;
46447;SDS011;32145;50.390;30.778;2024-02-15T14:35:09;22.05;;;13.05;;
46447;SDS011;32145;50.390;30.778;2024-02-15T14:38:06;20.48;;;12.98;;
46447;SDS011;32145;50.390;30.778;2024-02-15T14:41:04;20.90;;;12.43;;
46447;SDS011;32145;50.390;30.778;2024-02-15T14:43:53;22.95;;;13.75;;
46447;SDS011;32145;50.390;30.778;2024-02-15T14:46:49;28.15;;;13.25;;
46447;SDS011;32145;50.390;30.778;2024-02-15T14:49:45;32.53;;;14.43;;
46447;SDS011;32145;50.390;30.778;2024-02-15T14:52:36;23.20;;;12.75;;
46447;SDS011;32145;50.390;30.778;2024-02-15T14:55:32;22.88;;;12.18;;
46447;SDS011;32145;50.390;30.778;2024-02-15T14:58:24;22.95;;;12.20;;
46447;SDS011;32145;50.390;30.778;2024-02-15T15:01:18;22.23;;;12.05;;
46447;SDS011;32145;50.390;30.778;2024-02-15T15:04:13;22.17;;;11.90;;
46447;SDS011;32145;50.390;30.778;2024-02-15T15:07:01;32.83;;;14.80;;
46447;SDS011;32145;50.390;30.778;2024-02-15T15:09:59;37.28;;;15.23;;
46447;SDS011;32145;50.390;30.778;2024-02-15T15:12:53;38.50;;;15.18;;
46447;SDS011;32145;50.390;30.778;2024-02-15T15:15:48;56.83;;;19.10;;
46447;SDS011;32145;50.390;30.778;2024-02-15T15:18:43;39.60;;;16.17;;
46447;SDS011;32145;50.390;30.778;2024-02-15T15:21:31;50.80;;;14.73;;
46447;SDS011;32145;50.390;30.778;2024-02-15T15:24:27;25.80;;;13.13;;
46447;SDS011;32145;50.390;30.778;2024-02-15T15:27:18;24.10;;;12.02;;
46447;SDS011;32145;50.390;30.778;2024-02-15T15:30:06;24.65;;;11.80;;
46447;SDS011;32145;50.390;30.778;2024-02-15T15:32:58;28.85;;;12.35;;
46447;SDS011;32145;50.390;30.778;2024-02-15T15:35:46;26.77;;;12.20;;
46447;SDS011;32145;50.390;30.778;2024-02-15T15:38:43;26.95;;;13.10;;
46447;SDS011;32145;50.390;30.778;2024-02-15T15:41:39;22.88;;;11.88;;
46447;SDS011;32145;50.390;30.778;2024-02-15T15:44:35;23.38;;;13.52;;
46447;SDS011;32145;50.390;30.778;2024-02-15T15:47:32;23.38;;;11.98;;
46447;SDS011;32145;50.390;30.778;2024-02-15T15:50:30;22.08;;;13.10;;
46447;SDS011;32145;50.390;30.778;2024-02-15T15:53:26;28.80;;;13.07;;
46447;SDS011;32145;50.390;30.778;2024-02-15T15:56:22;24.50;;;13.25;;
46447;SDS011;32145;50.390;30.778;2024-02-15T15:59:19;24.92;;;13.32;;
46447;SDS011;32145;50.390;30.778;2024-02-15T16:02:15;24.35;;;12.75;;
46447;SDS011;32145;50.390;30.778;2024-02-15T16:05:12;23.67;;;13.52;;
46447;SDS011;32145;50.390;30.778;2024-02-15T16:08:10;22.75;;;12.65;;
46447;SDS011;32145;50.390;30.778;2024-02-15T16:11:06;26.95;;;12.90;;
46447;SDS011;32145;50.390;30.778;2024-02-15T16:14:03;29.52;;;14.07;;
46447;SDS011;32145;50.390;30.778;2024-02-15T16:17:05;26.85;;;12.32;;
46447;SDS011;32145;50.390;30.778;2024-02-15T16:20:01;24.65;;;13.50;;
46447;SDS011;32145;50.390;30.778;2024-02-15T16:22:58;24.40;;;12.98;;
46447;SDS011;32145;50.390;30.778;2024-02-15T16:25:55;31.50;;;15.35;;
46447;SDS011;32145;50.390;30.778;2024-02-15T16:28:50;26.77;;;14.38;;
46447;SDS011;32145;50.390;30.778;2024-02-15T16:31:44;25.92;;;14.68;;
46447;SDS011;32145;50.390;30.778;2024-02-15T16:34:39;31.50;;;15.70;;
46447;SDS011;32145;50.390;30.778;2024-02-15T16:37:33;29.58;;;15.98;;
46447;SDS011;32145;50.390;30.778;2024-02-15T16:40:27;29.23;;;14.90;;
46447;SDS011;32145;50.390;30.778;2024-02-15T16:43:23;26.17;;;14.77;;
46447;SDS011;32145;50.390;30.778;2024-02-15T16:46:19;31.15;;;15.27;;
46447;SDS011;32145;50.390;30.778;2024-02-15T16:49:16;28.10;;;14.73;;
46447;SDS011;32145;50.390;30.778;2024-02-15T16:52:12;33.80;;;15.60;;
46447;SDS011;32145;50.390;30.778;2024-02-15T16:55:09;28.55;;;14.68;;
46447;SDS011;32145;50.390;30.778;2024-02-15T16:58:04;28.83;;;13.82;;
46447;SDS011;32145;50.390;30.778;2024-02-15T17:00:59;25.83;;;13.32;;
46447;SDS011;32145;50.390;30.778;2024-02-15T17:03:55;24.75;;;13.18;;
46447;SDS011;32145;50.390;30.778;2024-02-15T17:06:50;26.00;;;13.52;;